createdAt,value
2019-02-19T00:06:48.049Z,32.8
2019-02-19T00:16:48.172Z,32.8
2019-02-19T00:26:47.378Z,32.8
2019-02-19T00:36:46.582Z,32.8
2019-02-19T00:46:45.788Z,32.8
2019-02-19T00:56:44.993Z,32.8
2019-02-19T01:06:44.197Z,32.8
2019-02-19T01:16:43.502Z,32.8
2019-02-19T01:26:42.610Z,32.8
2019-02-19T01:36:41.812Z,32.8
2019-02-19T01:46:41.017Z,32.8
2019-02-19T01:56:40.223Z,32.8
2019-02-19T02:06:39.428Z,32.8
2019-02-19T02:16:38.636Z,32.8
2019-02-19T02:26:37.834Z,32.8
2019-02-19T02:36:37.040Z,32.8
2019-02-19T02:46:36.245Z,32.8
2019-02-19T02:56:35.450Z,32.8
2019-02-19T03:06:34.653Z,32.8
2019-02-19T03:16:33.859Z,32.8
2019-02-19T03:26:33.061Z,32.8
2019-02-19T03:36:32.266Z,32.8
2019-02-19T03:46:31.478Z,32.8
2019-02-19T03:56:30.672Z,32.8
2019-02-19T04:06:29.875Z,32.2
2019-02-19T04:16:29.077Z,23.6
2019-02-19T04:26:28.287Z,21.9
2019-02-19T04:36:27.485Z,22.1
2019-02-19T04:44:06.423Z,22.2
2019-02-19T04:54:05.620Z,22.3
2019-02-19T05:04:04.824Z,22.3
2019-02-19T05:14:04.030Z,21.8
2019-02-19T05:24:03.238Z,19.8
2019-02-19T05:34:02.447Z,19.8
2019-02-19T05:44:01.671Z,19.7
2019-02-19T05:54:00.974Z,19.8
2019-02-19T06:04:00.350Z,19.8
2019-02-19T06:13:59.538Z,19.9
2019-02-19T06:23:58.829Z,20
2019-02-19T06:33:58.122Z,20.1
2019-02-19T06:43:57.368Z,20.4
2019-02-19T06:53:56.575Z,21.1
2019-02-19T07:03:55.780Z,21.8
2019-02-19T07:13:54.982Z,22.6
2019-02-19T07:24:02.182Z,23.4
2019-02-19T07:33:53.392Z,24.3
2019-02-19T07:43:54.183Z,25.3
2019-02-19T07:53:51.803Z,26.2
2019-02-19T08:03:51.008Z,27.1
2019-02-19T08:13:50.213Z,28.1
2019-02-19T08:23:49.420Z,29
2019-02-19T08:33:47.456Z,29.9
2019-02-19T08:43:46.662Z,30.8
2019-02-19T08:53:45.869Z,31.8
2019-02-19T09:03:45.074Z,32.6
2019-02-19T09:13:44.279Z,33.4
2019-02-19T09:23:43.483Z,34.2
2019-02-19T09:33:42.690Z,34.9
2019-02-19T09:43:41.982Z,35.6
2019-02-19T09:53:41.269Z,36.3
2019-02-19T10:03:40.554Z,37
2019-02-19T10:13:39.851Z,37.8
2019-02-19T10:23:39.137Z,38.4
2019-02-19T10:33:38.384Z,39.2
2019-02-19T10:43:37.590Z,39.9
2019-02-19T10:53:36.802Z,40.6
2019-02-19T11:03:36.007Z,41.1
2019-02-19T11:13:35.214Z,41.8
2019-02-19T11:23:34.472Z,42.4
2019-02-19T11:33:33.635Z,42.8
2019-02-19T11:43:33.207Z,43.3
2019-02-19T11:53:32.053Z,43.9
2019-02-19T12:03:31.314Z,44.5
2019-02-19T12:13:30.467Z,45.2
2019-02-19T12:23:29.672Z,45.8
2019-02-19T12:33:28.877Z,46.5
2019-02-19T12:43:28.083Z,47.1
2019-02-19T12:53:27.288Z,47.8
2019-02-19T13:03:26.492Z,48.4
2019-02-19T13:13:25.698Z,49.1
2019-02-19T13:23:24.901Z,49.6
2019-02-19T13:33:24.106Z,50.1
2019-02-19T13:43:23.309Z,50.9
2019-02-19T13:53:22.516Z,51.3
2019-02-19T14:03:21.718Z,51.8
2019-02-19T14:13:20.922Z,52.3
2019-02-19T14:23:20.128Z,52.8
2019-02-19T14:33:19.332Z,53.3
2019-02-19T14:43:18.549Z,53.7
2019-02-19T14:53:17.736Z,54
2019-02-19T15:03:16.941Z,54.3
2019-02-19T15:13:16.148Z,54.6
2019-02-19T15:23:15.352Z,54.8
2019-02-19T15:33:14.552Z,54.9
2019-02-19T15:43:13.757Z,54.9
2019-02-19T15:53:12.960Z,54.9
2019-02-19T16:03:12.162Z,54.9
2019-02-19T16:13:11.364Z,54.8
2019-02-19T16:23:10.572Z,54.6
2019-02-19T16:33:09.779Z,53.3
2019-02-19T16:43:08.991Z,52.3
2019-02-19T16:53:08.201Z,51.5
2019-02-19T17:03:07.461Z,51.2
2019-02-19T17:13:06.674Z,50.8
2019-02-19T17:23:05.827Z,50.1
2019-02-19T17:33:05.037Z,49.8
2019-02-19T17:43:04.246Z,48.9
2019-02-19T17:53:03.469Z,48.6
2019-02-19T18:03:02.689Z,47.7
2019-02-19T18:13:01.870Z,47.4
2019-02-19T18:23:01.130Z,45.6
2019-02-19T18:42:59.498Z,45.4
2019-02-19T18:52:58.706Z,45.2
2019-02-19T19:02:57.970Z,43.1
2019-02-19T19:12:57.131Z,43
2019-02-19T19:22:56.335Z,42.6
2019-02-19T19:32:55.546Z,40.1
2019-02-19T19:42:54.764Z,40.3
2019-02-19T19:52:53.965Z,26.7
2019-02-19T20:02:53.175Z,21.3
2019-02-19T20:12:52.384Z,21.3
2019-02-19T20:22:51.645Z,21.3
2019-02-19T20:29:00.567Z,21.3
2019-02-19T20:38:59.727Z,20.9
2019-02-19T20:48:58.938Z,20.9
2019-02-19T20:58:58.159Z,20.9
2019-02-19T21:03:55.112Z,21
2019-02-19T21:13:54.345Z,20.9
2019-02-19T21:23:53.504Z,21.1
2019-02-19T21:33:52.715Z,21.2
2019-02-19T21:43:51.925Z,21.3
2019-02-19T21:53:51.133Z,21.4
2019-02-19T22:03:50.400Z,21.6
2019-02-19T22:13:49.646Z,21.7
2019-02-19T22:23:48.983Z,21.8
2019-02-19T22:33:48.221Z,21.9
2019-02-19T22:43:47.510Z,22
2019-02-19T22:53:46.797Z,22.1
2019-02-19T23:03:46.049Z,22.3
2019-02-19T23:13:45.257Z,22.4
2019-02-19T23:23:44.462Z,22.4
2019-02-19T23:33:43.663Z,22.6
2019-02-19T23:43:42.868Z,22.6
2019-02-19T23:53:42.085Z,22.8
